createdAt,value
2022-12-24T00:00:07.767Z,11.82
2022-12-24T00:02:34.918Z,11.86
2022-12-24T00:05:01.811Z,11.78
2022-12-24T00:07:28.650Z,11.79
2022-12-24T00:09:55.164Z,11.84
2022-12-24T00:12:22.183Z,11.80
2022-12-24T00:14:48.721Z,11.76
2022-12-24T00:17:15.363Z,11.73
2022-12-24T00:19:43.327Z,11.75
2022-12-24T00:22:15.864Z,11.62
2022-12-24T00:24:42.411Z,11.61
2022-12-24T00:27:11.903Z,11.62
2022-12-24T00:29:38.412Z,11.69
2022-12-24T00:32:08.214Z,11.55
2022-12-24T00:34:36.141Z,11.59
2022-12-24T00:37:06.123Z,11.69
2022-12-24T00:39:33.095Z,11.73
2022-12-24T00:41:59.621Z,11.69
2022-12-24T00:44:26.459Z,11.77
2022-12-24T00:46:53.018Z,11.79
2022-12-24T00:49:19.566Z,11.73
2022-12-24T00:51:46.404Z,11.72
2022-12-24T00:54:13.192Z,11.58
2022-12-24T00:56:39.725Z,11.66
2022-12-24T00:59:06.254Z,11.71
2022-12-24T01:01:32.837Z,11.62
2022-12-24T01:04:18.050Z,11.69
2022-12-24T01:06:44.598Z,11.69
2022-12-24T01:09:11.360Z,11.71
2022-12-24T01:11:37.902Z,11.72
2022-12-24T01:14:04.418Z,11.65
2022-12-24T01:16:31.010Z,11.68
2022-12-24T01:18:57.595Z,11.56
2022-12-24T01:21:24.156Z,11.48
2022-12-24T01:23:50.647Z,11.55
2022-12-24T01:26:17.178Z,11.55
2022-12-24T01:28:43.697Z,11.30
2022-12-24T01:31:11.159Z,11.09
2022-12-24T01:33:37.728Z,11.11
2022-12-24T01:36:04.334Z,10.99
2022-12-24T01:38:30.894Z,10.86
2022-12-24T01:41:16.348Z,10.76
2022-12-24T01:43:43.016Z,10.75
2022-12-24T01:46:14.900Z,10.72
2022-12-24T01:48:43.001Z,10.86
2022-12-24T01:51:29.726Z,10.84
2022-12-24T01:53:58.025Z,10.99
2022-12-24T01:56:24.663Z,10.75
2022-12-24T01:58:52.240Z,10.72
2022-12-24T02:01:18.821Z,10.86
2022-12-24T02:03:45.510Z,10.93
2022-12-24T02:06:12.471Z,10.76
2022-12-24T02:08:42.103Z,10.91
2022-12-24T02:11:15.930Z,10.87
2022-12-24T02:13:43.022Z,10.67
2022-12-24T02:16:15.667Z,10.83
2022-12-24T02:19:11.771Z,10.83
2022-12-24T02:21:48.640Z,10.53
2022-12-24T02:24:21.886Z,10.67
2022-12-24T02:26:57.636Z,10.74
2022-12-24T02:29:33.049Z,10.68
2022-12-24T02:32:03.911Z,10.79
2022-12-24T02:34:36.696Z,10.58
2022-12-24T02:37:11.464Z,10.65
2022-12-24T02:39:48.684Z,10.72
2022-12-24T02:42:16.030Z,10.87
2022-12-24T02:44:50.247Z,10.90
2022-12-24T02:47:17.184Z,10.91
2022-12-24T02:49:44.580Z,10.69
2022-12-24T02:52:29.818Z,10.77
2022-12-24T02:54:56.773Z,10.85
2022-12-24T02:57:27.977Z,10.83
2022-12-24T02:59:59.553Z,10.84
2022-12-24T03:02:28.989Z,10.85
2022-12-24T03:04:55.598Z,10.95
2022-12-24T03:07:25.251Z,10.77
2022-12-24T03:10:06.816Z,10.96
2022-12-24T03:12:36.147Z,10.88
2022-12-24T03:15:03.016Z,10.98
2022-12-24T03:17:31.991Z,11.09
2022-12-24T03:19:58.503Z,11.16
2022-12-24T03:22:25.075Z,11.17
2022-12-24T03:24:51.636Z,11.01
2022-12-24T03:27:18.159Z,10.95
2022-12-24T03:29:44.982Z,11.03
2022-12-24T03:32:11.502Z,10.97
2022-12-24T03:34:38.050Z,11.02
2022-12-24T03:37:04.665Z,10.97
2022-12-24T03:39:31.176Z,10.77
2022-12-24T03:41:57.681Z,10.82
2022-12-24T03:44:24.181Z,10.74
2022-12-24T03:46:50.687Z,10.71
2022-12-24T03:49:17.201Z,10.72
2022-12-24T03:51:43.805Z,10.70
2022-12-24T03:54:10.345Z,10.65
2022-12-24T03:56:36.844Z,10.67
2022-12-24T03:59:03.430Z,10.57
2022-12-24T04:01:30.645Z,10.58
2022-12-24T04:03:57.263Z,10.50
2022-12-24T04:06:23.778Z,10.59
2022-12-24T04:08:50.338Z,10.71
2022-12-24T04:11:17.079Z,10.59
2022-12-24T04:13:43.625Z,10.64
2022-12-24T04:16:14.358Z,10.68
2022-12-24T04:18:41.187Z,10.73
2022-12-24T04:21:08.106Z,10.81
2022-12-24T04:23:35.168Z,10.87
2022-12-24T04:26:02.225Z,10.73
2022-12-24T04:28:29.188Z,10.67
2022-12-24T04:31:02.365Z,10.78
2022-12-24T04:33:28.897Z,10.59
2022-12-24T04:35:57.524Z,10.54
2022-12-24T04:38:24.198Z,10.53
2022-12-24T04:40:57.931Z,10.70
2022-12-24T04:43:24.458Z,10.64
2022-12-24T04:45:51.046Z,10.50
2022-12-24T04:48:17.584Z,10.62
2022-12-24T04:50:44.079Z,10.53
2022-12-24T04:53:10.624Z,10.56
2022-12-24T04:55:37.138Z,10.70
2022-12-24T04:58:03.671Z,10.71
2022-12-24T05:00:30.220Z,10.59
2022-12-24T05:02:56.780Z,10.59
2022-12-24T05:05:23.394Z,10.52
2022-12-24T05:07:49.961Z,10.45
2022-12-24T05:10:16.481Z,10.66
2022-12-24T05:12:43.048Z,10.48
2022-12-24T05:15:09.700Z,10.37
2022-12-24T05:17:36.265Z,10.26
2022-12-24T05:20:02.925Z,10.33
2022-12-24T05:22:47.951Z,10.46
2022-12-24T05:25:33.276Z,10.35
2022-12-24T05:27:59.794Z,10.22
2022-12-24T05:30:26.470Z,10.22
2022-12-24T05:32:53.030Z,10.30
2022-12-24T05:35:19.574Z,10.34
2022-12-24T05:37:46.100Z,10.29
2022-12-24T05:40:12.621Z,10.17
2022-12-24T05:42:39.138Z,10.13
2022-12-24T05:45:05.851Z,10.07
2022-12-24T05:47:34.704Z,10.01
2022-12-24T05:50:03.668Z,10.02
2022-12-24T05:52:30.189Z,10.01
2022-12-24T05:54:56.718Z,9.99
2022-12-24T05:57:23.226Z,9.90
2022-12-24T05:59:49.966Z,9.77
2022-12-24T06:02:16.604Z,9.78
2022-12-24T06:04:43.180Z,9.65
2022-12-24T06:07:09.712Z,9.59
2022-12-24T06:09:36.207Z,9.48
2022-12-24T06:12:02.733Z,9.49
2022-12-24T06:14:29.244Z,9.52
2022-12-24T06:16:55.866Z,9.50
2022-12-24T06:19:22.383Z,9.49
2022-12-24T06:21:48.909Z,9.47
2022-12-24T06:24:16.031Z,9.30
2022-12-24T06:26:42.626Z,9.38
2022-12-24T06:29:09.400Z,9.36
2022-12-24T06:31:35.975Z,9.36
2022-12-24T06:34:02.496Z,9.40
2022-12-24T06:36:29.006Z,9.30
2022-12-24T06:38:55.614Z,9.35
2022-12-24T06:41:22.475Z,9.43
2022-12-24T06:43:50.344Z,9.42
2022-12-24T06:46:17.314Z,9.46
2022-12-24T06:48:44.846Z,9.46
2022-12-24T06:51:11.658Z,9.38
2022-12-24T06:53:38.157Z,9.51
2022-12-24T06:56:05.276Z,9.48
2022-12-24T06:58:31.796Z,9.47
2022-12-24T07:00:58.279Z,9.44
2022-12-24T07:03:24.896Z,9.55
2022-12-24T07:05:51.496Z,9.55
2022-12-24T07:08:18.050Z,9.52
2022-12-24T07:10:50.572Z,9.52
2022-12-24T07:13:20.519Z,9.47
2022-12-24T07:15:47.080Z,9.53
2022-12-24T07:18:13.644Z,9.51
2022-12-24T07:20:40.162Z,9.47
2022-12-24T07:23:06.662Z,9.47
2022-12-24T07:25:33.170Z,9.44
2022-12-24T07:27:59.707Z,9.39
2022-12-24T07:30:26.246Z,9.46
2022-12-24T07:32:52.859Z,9.54
2022-12-24T07:35:19.390Z,9.64
2022-12-24T07:37:45.937Z,9.62
2022-12-24T07:40:12.547Z,9.69
2022-12-24T07:42:39.134Z,9.68
2022-12-24T07:45:05.907Z,9.61
2022-12-24T07:47:32.487Z,9.62
2022-12-24T07:49:58.999Z,9.54
2022-12-24T07:52:25.519Z,9.58
2022-12-24T07:54:52.093Z,9.44
2022-12-24T07:57:18.811Z,9.59
2022-12-24T07:59:45.348Z,9.64
2022-12-24T08:02:17.885Z,9.65
2022-12-24T08:04:45.008Z,9.58
2022-12-24T08:07:11.542Z,9.64
2022-12-24T08:09:38.572Z,9.61
2022-12-24T08:12:05.218Z,9.60
2022-12-24T08:14:32.208Z,9.62
2022-12-24T08:16:58.774Z,9.72
2022-12-24T08:19:25.393Z,9.65
2022-12-24T08:21:52.047Z,9.66
2022-12-24T08:24:18.764Z,9.70
2022-12-24T08:26:45.318Z,9.60
2022-12-24T08:29:12.047Z,9.63
2022-12-24T08:31:38.709Z,9.75
2022-12-24T08:34:06.109Z,9.89
2022-12-24T08:36:32.996Z,9.96
2022-12-24T08:39:03.557Z,10.08
2022-12-24T08:41:33.345Z,10.06
2022-12-24T08:43:59.872Z,10.11
2022-12-24T08:46:26.584Z,10.10
2022-12-24T08:48:53.194Z,10.17
2022-12-24T08:51:19.828Z,10.07
2022-12-24T08:53:47.061Z,10.05
2022-12-24T08:56:13.888Z,9.98
2022-12-24T08:58:40.539Z,9.98
2022-12-24T09:01:10.456Z,10.09
2022-12-24T09:03:37.222Z,10.06
2022-12-24T09:06:04.312Z,10.08
2022-12-24T09:08:31.429Z,10.09
2022-12-24T09:11:03.416Z,10.05
2022-12-24T09:13:29.959Z,10.09
2022-12-24T09:15:56.463Z,10.14
2022-12-24T09:18:22.995Z,10.22
2022-12-24T09:20:53.857Z,10.27
2022-12-24T09:23:23.540Z,10.19
2022-12-24T09:25:50.216Z,10.31
2022-12-24T09:28:17.360Z,10.36
2022-12-24T09:30:44.186Z,10.39
2022-12-24T09:33:10.777Z,10.53
2022-12-24T09:35:42.814Z,10.69
2022-12-24T09:38:09.399Z,10.89
2022-12-24T09:40:36.881Z,11.05
2022-12-24T09:43:04.989Z,11.24
2022-12-24T09:45:32.161Z,11.32
2022-12-24T09:47:59.969Z,11.50
2022-12-24T09:50:29.316Z,11.35
2022-12-24T09:52:56.045Z,11.69
2022-12-24T09:55:30.085Z,11.80
2022-12-24T09:57:56.789Z,11.85
2022-12-24T10:00:24.915Z,11.75
2022-12-24T10:02:51.613Z,11.85
2022-12-24T10:05:18.757Z,11.93
2022-12-24T10:07:50.201Z,12.03
2022-12-24T10:10:16.762Z,11.98
2022-12-24T10:12:50.058Z,12.16
2022-12-24T10:15:22.886Z,12.11
2022-12-24T10:17:59.384Z,12.34
2022-12-24T10:20:35.169Z,12.44
2022-12-24T10:23:01.649Z,12.57
2022-12-24T10:25:37.893Z,12.57
2022-12-24T10:28:06.113Z,12.54
2022-12-24T10:30:32.671Z,12.46
2022-12-24T10:32:59.267Z,12.38
2022-12-24T10:35:26.914Z,12.20
2022-12-24T10:37:53.571Z,12.11
2022-12-24T10:40:28.768Z,12.13
2022-12-24T10:42:55.311Z,12.23
2022-12-24T10:45:22.434Z,12.32
2022-12-24T10:47:49.943Z,12.33
2022-12-24T10:50:19.611Z,12.55
2022-12-24T10:52:46.376Z,12.45
2022-12-24T10:55:18.935Z,12.54
2022-12-24T10:57:46.443Z,12.49
2022-12-24T11:00:20.215Z,12.33
2022-12-24T11:02:54.817Z,12.27
2022-12-24T11:05:32.084Z,12.25
2022-12-24T11:08:06.820Z,12.36
2022-12-24T11:10:33.858Z,12.47
2022-12-24T11:13:35.612Z,12.54
2022-12-24T11:15:46.983Z,12.61
2022-12-24T11:18:13.920Z,12.63
2022-12-24T11:20:40.546Z,12.66
2022-12-24T11:23:07.151Z,12.70
2022-12-24T11:25:41.835Z,12.70
2022-12-24T11:28:12.688Z,12.69
2022-12-24T11:30:39.240Z,12.70
2022-12-24T11:33:11.603Z,12.69
2022-12-24T11:35:46.930Z,12.67
2022-12-24T11:38:17.455Z,12.66
2022-12-24T11:40:44.496Z,12.46
2022-12-24T11:43:16.073Z,12.38
2022-12-24T11:45:48.350Z,12.20
2022-12-24T11:48:34.029Z,12.28
2022-12-24T11:51:04.288Z,12.11
2022-12-24T11:53:33.686Z,11.94
2022-12-24T11:56:00.330Z,11.94
2022-12-24T11:58:26.900Z,11.91
2022-12-24T12:00:55.928Z,11.86
2022-12-24T12:03:36.856Z,11.79
2022-12-24T12:06:04.170Z,11.82
2022-12-24T12:08:34.386Z,11.81
2022-12-24T12:11:00.937Z,11.76
2022-12-24T12:13:33.175Z,11.69
2022-12-24T12:16:05.188Z,11.74
2022-12-24T12:18:36.026Z,11.79
2022-12-24T12:21:05.083Z,11.78
2022-12-24T12:23:33.960Z,11.89
2022-12-24T12:26:07.177Z,11.86
2022-12-24T12:28:47.806Z,11.80
2022-12-24T12:31:20.424Z,11.80
2022-12-24T12:33:48.091Z,11.73
2022-12-24T12:36:16.060Z,11.78
2022-12-24T12:38:42.617Z,11.63
2022-12-24T12:41:09.091Z,11.70
2022-12-24T12:43:48.719Z,11.69
2022-12-24T12:46:35.900Z,11.92
2022-12-24T12:49:15.720Z,12.05
2022-12-24T12:51:42.146Z,11.86
2022-12-24T12:54:13.550Z,12.00
2022-12-24T12:56:40.173Z,12.18
2022-12-24T12:59:06.647Z,12.15
2022-12-24T13:01:56.521Z,12.12
2022-12-24T13:04:41.966Z,11.98
2022-12-24T13:07:28.565Z,12.01
2022-12-24T13:10:15.101Z,12.01
2022-12-24T13:12:54.435Z,12.04
2022-12-24T13:15:27.701Z,12.01
2022-12-24T13:18:11.051Z,12.03
2022-12-24T13:20:40.641Z,12.02
2022-12-24T13:23:20.485Z,11.89
2022-12-24T13:25:47.959Z,11.92
2022-12-24T13:28:21.054Z,11.88
2022-12-24T13:30:48.230Z,11.92
2022-12-24T13:33:35.109Z,11.90
2022-12-24T13:36:02.447Z,11.91
2022-12-24T13:38:28.913Z,11.89
2022-12-24T13:40:55.895Z,11.80
2022-12-24T13:43:22.402Z,11.76
2022-12-24T13:45:50.098Z,11.66
2022-12-24T13:48:16.584Z,11.61
2022-12-24T13:50:50.383Z,11.56
2022-12-24T13:53:25.980Z,11.58
2022-12-24T13:56:01.968Z,11.61
2022-12-24T13:58:29.003Z,11.59
2022-12-24T14:00:58.534Z,11.43
2022-12-24T14:03:27.120Z,11.33
2022-12-24T14:05:55.298Z,11.30
2022-12-24T14:08:25.698Z,11.26
2022-12-24T14:10:58.374Z,11.19
2022-12-24T14:13:40.017Z,11.09
2022-12-24T14:16:19.164Z,11.05
2022-12-24T14:18:46.980Z,11.03
2022-12-24T14:21:24.443Z,11.00
2022-12-24T14:24:01.690Z,10.97
2022-12-24T14:26:29.288Z,10.87
2022-12-24T14:28:57.047Z,10.76
2022-12-24T14:31:23.718Z,10.75
2022-12-24T14:33:50.365Z,10.77
2022-12-24T14:36:19.493Z,10.72
2022-12-24T14:38:48.690Z,10.76
2022-12-24T14:41:26.864Z,10.79
2022-12-24T14:44:05.601Z,10.91
2022-12-24T14:46:32.091Z,10.93
2022-12-24T14:49:21.927Z,10.90
2022-12-24T14:51:56.043Z,10.94
2022-12-24T14:54:23.589Z,10.97
2022-12-24T14:57:06.853Z,10.84
2022-12-24T14:59:40.725Z,10.77
2022-12-24T15:02:26.113Z,10.64
2022-12-24T15:05:05.124Z,10.49
2022-12-24T15:07:33.299Z,10.41
2022-12-24T15:10:00.427Z,10.37
2022-12-24T15:12:26.963Z,10.40
2022-12-24T15:14:53.541Z,10.27
2022-12-24T15:17:20.075Z,10.17
2022-12-24T15:19:48.001Z,10.06
2022-12-24T15:22:23.021Z,10.08
2022-12-24T15:24:50.116Z,9.99
2022-12-24T15:27:17.955Z,10.00
2022-12-24T15:29:45.492Z,10.02
2022-12-24T15:32:16.091Z,10.07
2022-12-24T15:34:44.212Z,10.02
2022-12-24T15:37:10.888Z,10.03
2022-12-24T15:39:39.378Z,10.07
2022-12-24T15:42:16.055Z,10.09
2022-12-24T15:44:44.391Z,10.17
2022-12-24T15:47:18.438Z,10.06
2022-12-24T15:49:56.124Z,10.05
2022-12-24T15:52:26.224Z,10.02
2022-12-24T15:54:57.665Z,9.99
2022-12-24T15:57:28.745Z,10.06
2022-12-24T15:59:56.059Z,10.04
2022-12-24T16:02:40.238Z,9.99
2022-12-24T16:05:22.641Z,9.96
2022-12-24T16:08:08.897Z,9.93
2022-12-24T16:10:36.380Z,10.02
2022-12-24T16:13:07.544Z,9.94
2022-12-24T16:15:34.151Z,9.94
2022-12-24T16:18:08.362Z,9.96
2022-12-24T16:20:41.036Z,9.98
2022-12-24T16:23:15.111Z,9.96
2022-12-24T16:30:39.293Z,9.88
2022-12-24T16:33:06.715Z,9.95
2022-12-24T16:35:38.426Z,9.93
2022-12-24T16:38:05.011Z,10.05
2022-12-24T16:40:31.684Z,10.02
2022-12-24T16:43:17.192Z,9.86
2022-12-24T16:45:44.295Z,9.83
2022-12-24T16:48:11.281Z,9.95
2022-12-24T16:50:37.829Z,9.89
2022-12-24T16:53:04.347Z,9.92
2022-12-24T16:55:30.926Z,9.91
2022-12-24T16:57:57.466Z,10.04
2022-12-24T17:00:25.713Z,10.09
2022-12-24T17:02:52.447Z,10.15
2022-12-24T17:05:19.109Z,10.23
2022-12-24T17:07:45.622Z,10.11
2022-12-24T17:10:12.917Z,10.21
2022-12-24T17:12:39.454Z,10.19
2022-12-24T17:15:06.238Z,10.11
2022-12-24T17:17:32.910Z,10.24
2022-12-24T17:19:59.492Z,10.20
2022-12-24T17:22:27.776Z,10.10
2022-12-24T17:24:54.743Z,10.04
2022-12-24T17:27:21.464Z,10.03
2022-12-24T17:29:48.024Z,10.19
2022-12-24T17:32:14.554Z,10.35
2022-12-24T17:34:41.035Z,10.34
2022-12-24T17:37:07.616Z,10.31
2022-12-24T17:39:34.164Z,10.26
2022-12-24T17:42:00.754Z,10.13
2022-12-24T17:44:27.268Z,10.15
2022-12-24T17:46:53.901Z,10.21
2022-12-24T17:49:20.477Z,10.13
2022-12-24T17:51:47.000Z,10.18
2022-12-24T17:54:13.634Z,10.17
2022-12-24T17:56:40.236Z,10.18
2022-12-24T17:59:06.759Z,10.19
2022-12-24T18:01:33.439Z,10.21
2022-12-24T18:04:00.382Z,10.17
2022-12-24T18:06:27.204Z,10.10
2022-12-24T18:08:53.879Z,10.13
2022-12-24T18:11:25.016Z,10.09
2022-12-24T18:13:51.649Z,10.06
2022-12-24T18:16:25.398Z,10.02
2022-12-24T18:18:52.156Z,9.99
2022-12-24T18:21:19.628Z,10.00
2022-12-24T18:23:46.749Z,9.99
2022-12-24T18:26:13.677Z,10.02
2022-12-24T18:28:40.372Z,10.00
2022-12-24T18:31:09.348Z,10.02
2022-12-24T18:33:36.064Z,9.94
2022-12-24T18:36:02.850Z,9.97
2022-12-24T18:38:29.438Z,9.90
2022-12-24T18:40:55.943Z,9.91
2022-12-24T18:43:22.859Z,9.99
2022-12-24T18:45:49.388Z,10.05
2022-12-24T18:48:15.879Z,10.06
2022-12-24T18:50:42.577Z,10.03
2022-12-24T18:53:09.176Z,9.97
2022-12-24T18:55:36.241Z,9.98
2022-12-24T18:58:02.876Z,10.00
2022-12-24T19:00:29.609Z,9.94
2022-12-24T19:02:56.265Z,9.99
2022-12-24T19:05:22.849Z,10.04
2022-12-24T19:07:49.403Z,10.10
2022-12-24T19:10:16.758Z,10.14
2022-12-24T19:12:43.300Z,10.30
2022-12-24T19:15:09.986Z,10.37
2022-12-24T19:17:36.565Z,10.42
2022-12-24T19:20:03.186Z,10.45
2022-12-24T19:22:29.778Z,10.47
2022-12-24T19:24:56.277Z,10.47
2022-12-24T19:27:22.811Z,10.61
2022-12-24T19:29:49.375Z,10.63
2022-12-24T19:32:15.909Z,10.69
2022-12-24T19:34:42.639Z,10.69
2022-12-24T19:37:09.165Z,10.64
2022-12-24T19:39:35.699Z,10.63
2022-12-24T19:42:02.277Z,10.66
2022-12-24T19:44:28.798Z,10.76
2022-12-24T19:46:55.323Z,10.77
2022-12-24T19:49:21.839Z,10.79
2022-12-24T19:51:48.322Z,10.77
2022-12-24T19:54:18.856Z,10.75
2022-12-24T19:56:45.765Z,10.71
2022-12-24T19:59:12.278Z,10.74
2022-12-24T20:01:38.965Z,10.73
2022-12-24T20:04:06.553Z,10.76
2022-12-24T20:06:33.823Z,10.86
2022-12-24T20:09:07.600Z,10.83
2022-12-24T20:11:34.166Z,10.76
2022-12-24T20:14:01.355Z,10.75
2022-12-24T20:16:29.448Z,10.59
2022-12-24T20:18:57.013Z,10.48
2022-12-24T20:21:23.791Z,10.41
2022-12-24T20:23:50.708Z,10.42
2022-12-24T20:26:18.173Z,10.58
2022-12-24T20:28:44.852Z,10.53
2022-12-24T20:31:11.771Z,10.51
2022-12-24T20:33:38.697Z,10.61
2022-12-24T20:36:05.753Z,10.68
2022-12-24T20:38:32.313Z,10.75
2022-12-24T20:40:58.978Z,10.73
2022-12-24T20:43:27.337Z,10.68
2022-12-24T20:45:57.343Z,10.69
2022-12-24T20:48:24.063Z,10.69
2022-12-24T20:50:50.941Z,10.71
2022-12-24T20:53:18.166Z,10.73
2022-12-24T20:55:44.745Z,10.74
2022-12-24T20:58:12.448Z,10.66
2022-12-24T21:00:39.123Z,10.69
2022-12-24T21:03:05.739Z,10.67
2022-12-24T21:05:32.277Z,10.68
2022-12-24T21:07:58.785Z,10.67
2022-12-24T21:10:30.712Z,10.62
2022-12-24T21:13:00.496Z,10.66
2022-12-24T21:15:33.525Z,10.56
2022-12-24T21:18:00.163Z,10.55
2022-12-24T21:20:30.910Z,10.52
2022-12-24T21:23:01.149Z,10.48
2022-12-24T21:25:27.967Z,10.42
2022-12-24T21:27:57.515Z,10.51
2022-12-24T21:30:24.431Z,10.65
2022-12-24T21:32:51.030Z,10.70
2022-12-24T21:35:17.585Z,10.68
2022-12-24T21:37:44.095Z,10.64
2022-12-24T21:40:10.863Z,10.74
2022-12-24T21:42:37.424Z,10.77
2022-12-24T21:45:04.690Z,10.66
2022-12-24T21:47:31.235Z,10.76
2022-12-24T21:50:16.131Z,10.65
2022-12-24T21:52:42.741Z,10.65
2022-12-24T21:55:09.633Z,10.68
2022-12-24T21:57:54.852Z,10.65
2022-12-24T22:00:21.622Z,10.69
2022-12-24T22:02:50.284Z,10.61
2022-12-24T22:05:17.039Z,10.58
2022-12-24T22:08:02.289Z,10.41
2022-12-24T22:10:47.245Z,10.42
2022-12-24T22:13:13.782Z,10.40
2022-12-24T22:15:47.395Z,10.29
2022-12-24T22:18:15.884Z,10.11
2022-12-24T22:20:42.767Z,10.11
2022-12-24T22:23:09.305Z,10.00
2022-12-24T22:25:36.661Z,9.97
2022-12-24T22:28:03.452Z,9.91
2022-12-24T22:30:30.008Z,9.90
2022-12-24T22:32:57.323Z,9.92
2022-12-24T22:35:23.908Z,9.76
2022-12-24T22:37:54.565Z,9.73
2022-12-24T22:40:28.062Z,9.85
2022-12-24T22:42:54.815Z,9.70
2022-12-24T22:45:22.566Z,9.71
2022-12-24T22:47:49.659Z,9.65
2022-12-24T22:50:16.411Z,9.67
2022-12-24T22:52:43.348Z,9.64
2022-12-24T22:55:09.894Z,9.56
2022-12-24T22:57:36.606Z,9.49
2022-12-24T23:00:06.215Z,9.45
2022-12-24T23:02:32.922Z,9.54
2022-12-24T23:04:59.611Z,9.68
2022-12-24T23:07:26.341Z,9.71
2022-12-24T23:09:52.866Z,9.79
2022-12-24T23:12:39.347Z,9.71
2022-12-24T23:15:06.145Z,9.61
2022-12-24T23:17:32.647Z,9.70
2022-12-24T23:20:00.744Z,9.64
2022-12-24T23:22:27.464Z,9.69
2022-12-24T23:24:54.157Z,9.67
2022-12-24T23:27:20.663Z,9.62
2022-12-24T23:29:47.435Z,9.66
2022-12-24T23:32:14.074Z,9.63
2022-12-24T23:34:40.570Z,9.63
2022-12-24T23:37:07.813Z,9.58
2022-12-24T23:39:34.299Z,9.62
2022-12-24T23:42:00.807Z,9.73
2022-12-24T23:44:32.248Z,9.65
2022-12-24T23:46:59.442Z,9.70
2022-12-24T23:49:26.738Z,9.57
2022-12-24T23:51:53.264Z,9.72
2022-12-24T23:54:19.797Z,9.64
2022-12-24T23:56:46.338Z,9.63
2022-12-24T23:59:12.868Z,9.66
